createdAt,value
2023-03-02T00:05:35.012Z,20.30
2023-03-02T00:10:57.052Z,19.75
2023-03-02T00:16:17.875Z,20.67
2023-03-02T00:21:38.496Z,21.27
2023-03-02T00:26:59.810Z,20.80
2023-03-02T00:32:20.601Z,20.52
2023-03-02T00:37:41.511Z,21.40
2023-03-02T00:43:02.480Z,20.98
2023-03-02T00:48:23.278Z,23.52
2023-03-02T00:53:44.057Z,22.88
2023-03-02T00:59:06.404Z,23.17
2023-03-02T01:04:31.012Z,20.98
2023-03-02T01:09:52.313Z,23.00
2023-03-02T01:15:13.390Z,22.42
2023-03-02T01:20:34.073Z,21.70
2023-03-02T01:25:54.827Z,23.20
2023-03-02T01:31:15.774Z,22.75
2023-03-02T01:36:36.674Z,23.23
2023-03-02T01:41:58.088Z,26.15
2023-03-02T01:47:23.418Z,24.98
2023-03-02T01:52:53.552Z,25.42
2023-03-02T01:58:15.376Z,22.02
2023-03-02T02:03:36.639Z,23.67
2023-03-02T02:08:57.578Z,23.95
2023-03-02T02:14:18.291Z,24.02
2023-03-02T02:19:50.702Z,22.35
2023-03-02T02:25:53.052Z,24.48
2023-03-02T02:31:23.657Z,23.52
2023-03-02T02:36:45.874Z,23.77
2023-03-02T02:42:13.007Z,24.00
2023-03-02T02:47:34.134Z,24.08
2023-03-02T02:53:03.585Z,24.20
2023-03-02T02:58:38.912Z,23.75
2023-03-02T03:04:04.371Z,23.30
2023-03-02T03:09:26.727Z,23.25
2023-03-02T03:14:47.713Z,21.70
2023-03-02T03:20:09.776Z,23.40
2023-03-02T03:25:36.190Z,21.95
2023-03-02T03:30:58.163Z,22.08
2023-03-02T03:36:19.528Z,23.38
2023-03-02T03:41:41.099Z,23.50
2023-03-02T03:47:02.947Z,22.00
2023-03-02T03:52:30.686Z,22.63
2023-03-02T03:57:59.979Z,22.73
2023-03-02T04:03:21.424Z,22.58
2023-03-02T04:08:42.432Z,22.02
2023-03-02T04:14:03.815Z,20.98
2023-03-02T04:19:25.027Z,21.48
2023-03-02T04:24:49.416Z,23.73
2023-03-02T04:30:11.623Z,21.40
2023-03-02T04:35:33.123Z,22.05
2023-03-02T04:40:58.560Z,23.08
2023-03-02T04:46:22.156Z,23.90
2023-03-02T04:51:43.989Z,21.35
2023-03-02T04:57:04.991Z,22.98
2023-03-02T05:02:25.959Z,21.63
2023-03-02T05:07:46.834Z,23.80
2023-03-02T05:13:08.035Z,22.27
2023-03-02T05:18:29.207Z,23.10
2023-03-02T05:23:50.075Z,20.35
2023-03-02T05:29:10.904Z,23.73
2023-03-02T05:34:31.776Z,22.95
2023-03-02T05:39:52.763Z,24.65
2023-03-02T05:45:18.516Z,21.20
2023-03-02T05:50:39.409Z,22.55
2023-03-02T05:56:01.145Z,22.75
2023-03-02T06:01:22.101Z,22.05
2023-03-02T06:06:42.971Z,21.83
2023-03-02T06:12:03.725Z,24.33
2023-03-02T06:17:24.536Z,24.58
2023-03-02T06:22:47.311Z,25.40
2023-03-02T06:28:08.854Z,28.23
2023-03-02T06:33:30.535Z,26.67
2023-03-02T06:38:51.320Z,26.92
2023-03-02T06:44:12.778Z,28.60
2023-03-02T06:49:33.525Z,27.98
2023-03-02T06:54:55.113Z,29.38
2023-03-02T07:00:25.949Z,27.58
2023-03-02T07:05:49.017Z,28.38
2023-03-02T07:11:11.333Z,27.67
2023-03-02T07:16:33.675Z,27.00
2023-03-02T07:21:55.383Z,25.77
2023-03-02T07:27:16.421Z,27.20
2023-03-02T07:32:37.495Z,26.55
2023-03-02T07:37:58.353Z,25.73
2023-03-02T07:43:19.694Z,26.13
2023-03-02T07:48:40.516Z,24.60
2023-03-02T07:54:02.961Z,24.10
2023-03-02T07:59:24.234Z,24.45
2023-03-02T08:04:45.310Z,24.08
2023-03-02T08:10:06.499Z,23.92
2023-03-02T08:15:27.395Z,24.88
2023-03-02T08:20:48.100Z,25.30
2023-03-02T08:26:09.993Z,24.55
2023-03-02T08:31:33.237Z,25.02
2023-03-02T08:36:54.515Z,24.15
2023-03-02T08:42:16.357Z,25.03
2023-03-02T08:47:37.729Z,23.55
2023-03-02T08:52:58.338Z,24.60
2023-03-02T08:58:19.213Z,22.47
2023-03-02T09:03:39.840Z,23.20
2023-03-02T09:09:00.707Z,21.80
2023-03-02T09:19:44.488Z,20.48
2023-03-02T09:25:05.813Z,20.70
2023-03-02T09:30:26.676Z,19.35
2023-03-02T09:35:47.761Z,20.08
2023-03-02T09:41:20.869Z,20.08
2023-03-02T09:46:54.247Z,19.27
2023-03-02T09:52:31.736Z,18.80
2023-03-02T09:57:55.144Z,17.52
2023-03-02T10:03:23.892Z,18.25
2023-03-02T10:08:45.195Z,16.60
2023-03-02T10:14:28.047Z,17.48
2023-03-02T10:19:53.489Z,17.55
2023-03-02T10:25:36.792Z,18.20
2023-03-02T10:31:28.060Z,18.25
2023-03-02T10:36:49.236Z,18.50
2023-03-02T10:42:26.622Z,17.50
2023-03-02T10:47:47.830Z,16.27
2023-03-02T10:53:16.542Z,15.80
2023-03-02T10:58:37.877Z,18.52
2023-03-02T11:04:00.032Z,18.35
2023-03-02T11:09:21.256Z,19.02
2023-03-02T11:20:04.258Z,19.70
2023-03-02T11:25:39.551Z,19.93
2023-03-02T11:31:01.493Z,18.85
2023-03-02T11:36:24.894Z,18.80
2023-03-02T11:41:46.457Z,17.20
2023-03-02T11:47:08.114Z,19.33
2023-03-02T11:52:31.128Z,19.08
2023-03-02T11:57:56.419Z,20.90
2023-03-02T12:03:17.435Z,20.08
2023-03-02T12:08:45.554Z,21.25
2023-03-02T12:14:36.513Z,20.27
2023-03-02T12:20:27.044Z,18.75
2023-03-02T12:25:51.592Z,18.05
2023-03-02T12:31:13.182Z,19.02
2023-03-02T12:36:39.998Z,19.48
2023-03-02T12:42:00.910Z,19.50
2023-03-02T12:47:29.663Z,18.83
2023-03-02T12:53:18.338Z,18.85
2023-03-02T12:58:39.596Z,19.75
2023-03-02T13:04:00.274Z,17.50
2023-03-02T13:09:21.445Z,17.58
2023-03-02T13:14:43.402Z,17.38
2023-03-02T13:20:04.589Z,18.10
2023-03-02T13:25:30.683Z,17.00
2023-03-02T13:30:59.501Z,16.58
2023-03-02T13:36:29.171Z,17.60
2023-03-02T13:42:00.537Z,16.90
2023-03-02T13:47:23.246Z,16.33
2023-03-02T13:52:43.972Z,16.85
2023-03-02T13:58:04.777Z,17.58
2023-03-02T14:03:27.870Z,16.52
2023-03-02T14:08:50.376Z,15.93
2023-03-02T14:14:14.592Z,15.40
2023-03-02T14:19:36.235Z,15.15
2023-03-02T14:24:57.295Z,14.23
2023-03-02T14:30:20.462Z,15.07
2023-03-02T14:35:41.107Z,14.73
2023-03-02T14:41:01.961Z,14.35
2023-03-02T14:46:22.703Z,14.15
2023-03-02T14:51:43.897Z,14.23
2023-03-02T14:57:08.017Z,13.10
2023-03-02T15:07:49.713Z,13.43
2023-03-02T15:13:11.051Z,12.20
2023-03-02T15:18:32.517Z,12.25
2023-03-02T15:23:53.733Z,12.10
2023-03-02T15:29:14.494Z,11.45
2023-03-02T15:34:35.818Z,10.43
2023-03-02T15:39:56.729Z,10.27
2023-03-02T15:45:17.994Z,10.32
2023-03-02T15:50:38.727Z,11.35
2023-03-02T15:56:00.032Z,10.02
2023-03-02T16:01:21.000Z,9.65
2023-03-02T16:06:42.246Z,10.75
2023-03-02T16:12:03.167Z,10.07
2023-03-02T16:17:24.396Z,11.10
2023-03-02T16:22:45.229Z,10.50
2023-03-02T16:28:07.085Z,10.73
2023-03-02T16:33:28.299Z,10.15
2023-03-02T16:38:49.399Z,10.63
2023-03-02T16:44:10.951Z,12.15
2023-03-02T16:49:31.632Z,11.18
2023-03-02T16:54:52.480Z,10.32
2023-03-02T17:00:15.398Z,10.73
2023-03-02T17:05:36.424Z,10.43
2023-03-02T17:10:57.298Z,10.48
2023-03-02T17:16:19.213Z,11.82
2023-03-02T17:21:40.454Z,11.52
2023-03-02T17:27:01.107Z,12.23
2023-03-02T17:32:22.874Z,13.20
2023-03-02T17:37:43.876Z,10.10
2023-03-02T17:43:04.940Z,10.85
2023-03-02T17:48:26.805Z,10.68
2023-03-02T17:53:48.545Z,11.23
2023-03-02T17:59:10.464Z,11.02
2023-03-02T18:04:31.634Z,11.15
2023-03-02T18:09:52.382Z,11.73
2023-03-02T18:15:13.294Z,10.95
2023-03-02T18:20:34.510Z,12.57
2023-03-02T18:25:55.517Z,13.18
2023-03-02T18:31:17.893Z,12.93
2023-03-02T18:36:39.274Z,14.10
2023-03-02T18:42:00.323Z,20.77
2023-03-02T18:47:21.936Z,17.08
2023-03-02T18:52:43.210Z,15.02
2023-03-02T18:58:04.372Z,15.65
2023-03-02T19:03:25.231Z,18.17
2023-03-02T19:08:46.316Z,15.60
2023-03-02T19:14:07.130Z,13.80
2023-03-02T19:19:28.822Z,13.02
2023-03-02T19:24:50.205Z,13.27
2023-03-02T19:30:20.922Z,12.20
2023-03-02T19:35:41.888Z,12.68
2023-03-02T19:41:03.011Z,14.38
2023-03-02T19:46:23.814Z,15.55
2023-03-02T19:51:44.622Z,15.68
2023-03-02T19:57:06.130Z,17.15
2023-03-02T20:02:27.350Z,15.75
2023-03-02T20:07:48.353Z,17.27
2023-03-02T20:13:09.782Z,16.63
2023-03-02T20:18:30.764Z,16.83
2023-03-02T20:23:51.988Z,16.73
2023-03-02T20:29:13.204Z,17.85
2023-03-02T20:34:34.740Z,18.80
2023-03-02T20:39:56.544Z,18.05
2023-03-02T20:45:17.476Z,17.58
2023-03-02T20:50:38.614Z,19.25
2023-03-02T20:55:59.804Z,19.45
2023-03-02T21:01:21.126Z,22.20
2023-03-02T21:06:42.529Z,22.75
2023-03-02T21:12:04.820Z,20.83
2023-03-02T21:17:26.093Z,20.30
2023-03-02T21:22:47.944Z,18.35
2023-03-02T21:28:09.204Z,23.73
2023-03-02T21:33:30.114Z,20.25
2023-03-02T21:38:51.671Z,19.05
2023-03-02T21:44:13.177Z,19.15
2023-03-02T21:49:34.305Z,19.95
2023-03-02T21:54:56.411Z,21.85
2023-03-02T22:00:22.417Z,21.38
2023-03-02T22:05:43.928Z,21.30
2023-03-02T22:11:06.059Z,26.60
2023-03-02T22:16:28.945Z,24.55
2023-03-02T22:21:50.291Z,22.20
2023-03-02T22:27:21.631Z,23.60
2023-03-02T22:32:42.486Z,22.50
2023-03-02T22:38:07.534Z,22.20
2023-03-02T22:43:33.124Z,21.80
2023-03-02T22:48:53.893Z,20.52
2023-03-02T22:54:21.071Z,19.70
2023-03-02T22:59:42.202Z,20.67
2023-03-02T23:05:03.170Z,22.05
2023-03-02T23:10:24.369Z,21.83
2023-03-02T23:15:45.959Z,20.65
2023-03-02T23:21:16.778Z,21.02
2023-03-02T23:26:37.617Z,20.70
2023-03-02T23:31:58.952Z,19.55
2023-03-02T23:37:20.260Z,19.58
2023-03-02T23:42:41.147Z,20.88
2023-03-02T23:48:02.384Z,20.30
2023-03-02T23:53:23.542Z,19.50
2023-03-02T23:58:44.821Z,19.65
